createdAt,value
2022-08-10T00:00:54.935Z,99.90
2022-08-10T00:03:01.338Z,99.90
2022-08-10T00:05:06.610Z,99.90
2022-08-10T00:07:21.272Z,99.90
2022-08-10T00:09:24.855Z,99.90
2022-08-10T00:11:28.771Z,99.90
2022-08-10T00:13:32.628Z,99.90
2022-08-10T00:15:52.816Z,99.90
2022-08-10T00:17:41.698Z,99.90
2022-08-10T00:20:03.851Z,99.90
2022-08-10T00:21:50.885Z,99.90
2022-08-10T00:23:54.505Z,99.90
2022-08-10T00:25:58.131Z,99.90
2022-08-10T00:28:04.118Z,99.90
2022-08-10T00:30:08.965Z,99.90
2022-08-10T00:32:12.695Z,99.90
2022-08-10T00:34:16.305Z,99.90
2022-08-10T00:38:36.495Z,99.90
2022-08-10T00:40:40.213Z,99.90
2022-08-10T00:42:43.876Z,99.90
2022-08-10T00:44:49.492Z,99.90
2022-08-10T00:46:53.232Z,99.90
2022-08-10T00:49:00.426Z,99.90
2022-08-10T00:53:17.760Z,99.90
2022-08-10T00:55:21.785Z,99.90
2022-08-10T00:57:26.375Z,99.90
2022-08-10T00:59:31.812Z,99.90
2022-08-10T01:02:08.758Z,99.90
2022-08-10T01:04:40.070Z,99.90
2022-08-10T01:05:51.255Z,99.90
2022-08-10T01:10:36.616Z,99.90
2022-08-10T01:12:44.201Z,99.90
2022-08-10T01:14:52.344Z,99.90
2022-08-10T01:19:17.720Z,99.90
2022-08-10T01:21:56.816Z,99.90
2022-08-10T01:24:40.486Z,99.90
2022-08-10T01:27:09.732Z,99.90
2022-08-10T01:29:36.032Z,99.90
2022-08-10T01:31:42.570Z,99.90
2022-08-10T01:33:58.341Z,99.90
2022-08-10T01:38:14.488Z,99.90
2022-08-10T01:40:22.893Z,99.90
2022-08-10T01:42:29.714Z,99.90
2022-08-10T01:44:37.272Z,99.90
2022-08-10T01:46:44.375Z,99.90
2022-08-10T01:48:50.838Z,99.90
2022-08-10T01:53:16.511Z,99.90
2022-08-10T01:55:21.310Z,99.90
2022-08-10T01:57:27.686Z,99.90
2022-08-10T01:59:34.441Z,99.90
2022-08-10T02:04:04.381Z,99.90
2022-08-10T02:06:04.854Z,99.90
2022-08-10T02:08:11.364Z,99.90
2022-08-10T02:10:18.621Z,99.90
2022-08-10T02:12:24.387Z,99.90
2022-08-10T02:14:32.947Z,99.90
2022-08-10T02:16:38.030Z,99.90
2022-08-10T02:18:42.830Z,99.90
2022-08-10T02:20:49.022Z,99.90
2022-08-10T02:22:55.700Z,99.90
2022-08-10T02:25:01.979Z,99.90
2022-08-10T02:29:23.620Z,99.90
2022-08-10T02:31:28.370Z,99.90
2022-08-10T02:33:38.068Z,99.90
2022-08-10T02:35:55.400Z,99.90
2022-08-10T02:37:51.325Z,99.90
2022-08-10T02:39:55.125Z,99.90
2022-08-10T02:42:17.890Z,99.90
2022-08-10T02:45:19.342Z,99.90
2022-08-10T02:46:21.340Z,99.90
2022-08-10T02:48:32.115Z,99.90
2022-08-10T02:50:38.501Z,99.90
2022-08-10T02:52:45.635Z,99.90
2022-08-10T02:54:53.493Z,99.90
2022-08-10T02:57:00.956Z,99.90
2022-08-10T03:01:29.569Z,99.90
2022-08-10T03:03:37.876Z,99.90
2022-08-10T03:05:42.955Z,99.90
2022-08-10T03:07:50.770Z,99.90
2022-08-10T03:09:55.502Z,99.90
2022-08-10T03:12:36.790Z,99.90
2022-08-10T03:16:25.127Z,99.90
2022-08-10T03:18:31.905Z,99.90
2022-08-10T03:20:39.950Z,99.90
2022-08-10T03:22:46.433Z,99.90
2022-08-10T03:24:52.261Z,99.90
2022-08-10T03:26:57.219Z,99.90
2022-08-10T03:31:18.760Z,99.90
2022-08-10T03:33:25.338Z,99.90
2022-08-10T03:35:30.028Z,99.90
2022-08-10T03:37:33.747Z,99.90
2022-08-10T03:39:37.418Z,99.90
2022-08-10T03:41:47.830Z,99.90
2022-08-10T03:43:51.366Z,99.90
2022-08-10T03:48:13.361Z,99.90
2022-08-10T03:50:27.976Z,99.90
2022-08-10T03:52:30.196Z,99.90
2022-08-10T03:54:51.503Z,99.90
2022-08-10T03:56:59.081Z,99.90
2022-08-10T03:59:05.002Z,99.90
2022-08-10T04:03:30.392Z,99.90
2022-08-10T04:05:38.817Z,99.90
2022-08-10T04:07:44.005Z,99.90
2022-08-10T04:09:54.872Z,99.90
2022-08-10T04:11:56.382Z,99.90
2022-08-10T04:14:00.559Z,99.90
2022-08-10T04:18:21.001Z,99.90
2022-08-10T04:20:34.468Z,99.90
2022-08-10T04:22:39.744Z,99.90
2022-08-10T04:24:45.430Z,99.90
2022-08-10T04:26:49.628Z,99.90
2022-08-10T04:28:54.077Z,99.90
2022-08-10T04:30:58.763Z,99.90
2022-08-10T04:33:05.470Z,99.90
2022-08-10T04:37:30.983Z,99.90
2022-08-10T04:39:34.874Z,99.90
2022-08-10T04:41:38.656Z,99.90
2022-08-10T04:43:44.007Z,99.90
2022-08-10T04:45:51.750Z,99.90
2022-08-10T04:48:00.098Z,99.90
2022-08-10T04:49:59.048Z,99.90
2022-08-10T04:52:03.312Z,99.90
2022-08-10T04:54:08.220Z,99.90
2022-08-10T04:58:29.845Z,99.90
2022-08-10T05:00:33.877Z,99.90
2022-08-10T05:02:37.453Z,99.90
2022-08-10T05:04:41.008Z,99.90
2022-08-10T05:06:44.519Z,99.90
2022-08-10T05:08:48.121Z,99.90
2022-08-10T05:10:51.760Z,99.90
2022-08-10T05:12:55.353Z,99.90
2022-08-10T05:14:58.847Z,99.90
2022-08-10T05:17:03.013Z,99.90
2022-08-10T05:19:06.787Z,99.90
2022-08-10T05:23:26.115Z,99.90
2022-08-10T05:25:33.017Z,99.90
2022-08-10T05:27:36.637Z,99.90
2022-08-10T05:29:40.225Z,99.90
2022-08-10T05:31:44.062Z,99.90
2022-08-10T05:33:47.664Z,99.90
2022-08-10T05:35:56.483Z,99.90
2022-08-10T05:38:11.543Z,99.90
2022-08-10T05:40:06.755Z,99.90
2022-08-10T05:42:10.618Z,99.90
2022-08-10T05:44:14.545Z,99.90
2022-08-10T05:48:54.101Z,99.90
2022-08-10T05:50:40.386Z,99.90
2022-08-10T05:52:44.029Z,99.90
2022-08-10T05:54:47.982Z,99.90
2022-08-10T05:56:56.843Z,99.90
2022-08-10T05:58:57.203Z,99.90
2022-08-10T06:01:02.417Z,99.90
2022-08-10T06:03:07.885Z,99.90
2022-08-10T06:05:14.390Z,99.90
2022-08-10T06:09:35.500Z,99.90
2022-08-10T06:12:23.310Z,99.90
2022-08-10T06:14:13.749Z,99.90
2022-08-10T06:16:15.832Z,99.90
2022-08-10T06:18:20.024Z,99.90
2022-08-10T06:20:23.977Z,99.90
2022-08-10T06:22:31.671Z,99.90
2022-08-10T06:24:55.928Z,99.90
2022-08-10T06:26:44.996Z,99.90
2022-08-10T06:28:58.975Z,99.90
2022-08-10T06:31:00.177Z,99.90
2022-08-10T06:33:04.584Z,99.90
2022-08-10T06:35:10.789Z,99.90
2022-08-10T06:39:36.165Z,99.90
2022-08-10T06:42:15.083Z,99.90
2022-08-10T06:43:54.851Z,99.90
2022-08-10T06:46:07.933Z,99.90
2022-08-10T06:48:13.000Z,99.90
2022-08-10T06:52:35.188Z,99.90
2022-08-10T06:54:40.578Z,99.90
2022-08-10T06:57:01.789Z,99.90
2022-08-10T06:58:56.013Z,99.90
2022-08-10T07:01:05.001Z,99.90
2022-08-10T07:03:11.543Z,99.90
2022-08-10T07:05:21.654Z,99.90
2022-08-10T07:09:44.532Z,99.90
2022-08-10T07:11:50.366Z,99.90
2022-08-10T07:14:13.990Z,99.90
2022-08-10T07:16:12.648Z,99.90
2022-08-10T07:18:17.031Z,99.90
2022-08-10T07:20:22.420Z,99.90
2022-08-10T07:24:52.567Z,99.90
2022-08-10T07:26:58.396Z,99.90
2022-08-10T07:29:03.888Z,99.90
2022-08-10T07:31:34.854Z,99.90
2022-08-10T07:33:16.557Z,99.90
2022-08-10T07:35:22.937Z,99.90
2022-08-10T07:37:29.068Z,99.90
2022-08-10T07:40:02.189Z,99.90
2022-08-10T07:41:44.283Z,99.90
2022-08-10T07:43:49.627Z,99.90
2022-08-10T07:45:56.558Z,99.90
2022-08-10T07:48:07.431Z,99.90
2022-08-10T07:50:12.288Z,99.90
2022-08-10T07:52:15.945Z,99.90
2022-08-10T07:56:48.956Z,99.90
2022-08-10T07:58:51.506Z,99.90
2022-08-10T08:00:55.072Z,99.90
2022-08-10T08:03:00.911Z,99.90
2022-08-10T08:05:07.989Z,99.90
2022-08-10T08:07:13.518Z,99.90
2022-08-10T08:09:19.255Z,99.90
2022-08-10T08:11:26.254Z,99.90
2022-08-10T08:13:30.497Z,99.90
2022-08-10T08:16:19.734Z,99.90
2022-08-10T08:17:42.079Z,99.90
2022-08-10T08:19:55.667Z,99.90
2022-08-10T08:24:14.599Z,99.90
2022-08-10T08:24:31.991Z,99.90
2022-08-10T08:26:12.411Z,99.90
2022-08-10T08:28:17.924Z,99.90
2022-08-10T08:30:27.029Z,99.90
2022-08-10T08:32:31.160Z,99.90
2022-08-10T08:34:37.922Z,99.90
2022-08-10T08:36:43.007Z,99.90
2022-08-10T08:38:47.275Z,99.90
2022-08-10T08:40:56.297Z,99.90
2022-08-10T08:43:18.278Z,99.90
2022-08-10T08:45:27.338Z,99.90
2022-08-10T08:48:03.714Z,99.90
2022-08-10T08:50:25.707Z,99.90
2022-08-10T08:52:36.660Z,99.90
2022-08-10T08:54:46.795Z,99.90
2022-08-10T08:56:57.036Z,99.90
2022-08-10T08:59:18.494Z,99.90
2022-08-10T09:01:40.282Z,99.90
2022-08-10T09:04:04.410Z,99.90
2022-08-10T09:06:18.488Z,99.90
2022-08-10T09:08:38.712Z,99.90
2022-08-10T09:10:48.758Z,99.90
2022-08-10T09:15:40.010Z,99.90
2022-08-10T09:17:27.029Z,99.90
2022-08-10T09:19:36.983Z,99.90
2022-08-10T09:22:10.752Z,99.90
2022-08-10T09:24:01.654Z,99.90
2022-08-10T09:28:26.484Z,99.40
2022-08-10T09:36:14.637Z,98.20
2022-08-10T09:36:20.692Z,97.90
2022-08-10T09:41:50.963Z,95.80
2022-08-10T09:46:16.499Z,95.30
2022-08-10T09:51:28.022Z,92.70
2022-08-10T09:55:23.136Z,93.40
2022-08-10T10:00:01.787Z,91.80
2022-08-10T10:02:05.959Z,90.60
2022-08-10T10:04:13.943Z,90.60
2022-08-10T10:08:43.306Z,91.40
2022-08-10T10:10:53.229Z,90.40
2022-08-10T10:13:01.271Z,90.90
2022-08-10T10:15:24.303Z,91.30
2022-08-10T10:17:31.491Z,91.00
2022-08-10T10:19:53.631Z,91.10
2022-08-10T10:22:02.459Z,90.50
2022-08-10T10:24:21.126Z,90.50
2022-08-10T10:29:15.418Z,89.40
2022-08-10T10:33:12.367Z,87.20
2022-08-10T10:38:01.356Z,86.50
2022-08-10T10:42:04.333Z,85.80
2022-08-10T10:44:11.370Z,87.30
2022-08-10T10:46:24.320Z,85.80
2022-08-10T10:50:58.812Z,85.10
2022-08-10T10:55:28.078Z,85.10
2022-08-10T10:59:57.693Z,86.40
2022-08-10T11:04:24.993Z,84.10
2022-08-10T11:08:53.992Z,84.10
2022-08-10T11:15:42.681Z,81.60
2022-08-10T11:20:05.923Z,80.80
2022-08-10T11:22:16.488Z,82.70
2022-08-10T11:26:40.532Z,81.40
2022-08-10T11:31:05.681Z,81.40
2022-08-10T11:35:36.375Z,76.80
2022-08-10T11:39:59.968Z,80.60
2022-08-10T11:42:19.139Z,79.10
2022-08-10T11:46:31.828Z,75.50
2022-08-10T11:50:57.673Z,77.50
2022-08-10T11:53:06.708Z,77.20
2022-08-10T11:57:54.539Z,77.90
2022-08-10T12:01:55.542Z,73.20
2022-08-10T12:04:03.436Z,72.80
2022-08-10T12:06:12.866Z,74.50
2022-08-10T12:10:07.218Z,76.70
2022-08-10T12:10:27.253Z,75.40
2022-08-10T12:12:34.612Z,76.20
2022-08-10T12:14:43.592Z,77.00
2022-08-10T12:16:50.031Z,75.10
2022-08-10T12:18:58.436Z,77.50
2022-08-10T12:23:20.283Z,76.90
2022-08-10T12:25:55.875Z,75.20
2022-08-10T12:27:38.159Z,75.00
2022-08-10T12:29:46.685Z,75.40
2022-08-10T12:31:54.594Z,78.50
2022-08-10T12:34:10.776Z,76.70
2022-08-10T12:38:37.160Z,76.80
2022-08-10T12:43:13.210Z,73.90
2022-08-10T12:45:12.722Z,74.70
2022-08-10T12:49:36.870Z,75.60
2022-08-10T12:51:49.473Z,73.60
2022-08-10T12:53:56.207Z,73.50
2022-08-10T12:56:01.400Z,73.80
2022-08-10T12:58:56.784Z,74.50
2022-08-10T13:00:17.316Z,75.00
2022-08-10T13:04:41.811Z,72.30
2022-08-10T13:09:09.174Z,70.80
2022-08-10T13:13:33.535Z,72.20
2022-08-10T13:17:55.077Z,72.80
2022-08-10T13:22:17.660Z,72.50
2022-08-10T13:27:22.772Z,69.70
2022-08-10T13:28:50.817Z,71.20
2022-08-10T13:30:55.632Z,73.10
2022-08-10T13:33:01.578Z,73.20
2022-08-10T13:35:09.324Z,71.20
2022-08-10T13:39:57.815Z,72.40
2022-08-10T13:44:01.392Z,68.70
2022-08-10T13:48:22.271Z,70.40
2022-08-10T13:52:47.884Z,72.00
2022-08-10T13:54:53.293Z,71.50
2022-08-10T13:56:57.843Z,69.50
2022-08-10T14:01:20.468Z,69.20
2022-08-10T14:03:25.840Z,71.70
2022-08-10T14:05:33.466Z,67.80
2022-08-10T14:07:45.166Z,68.70
2022-08-10T14:09:48.342Z,67.70
2022-08-10T14:11:52.628Z,66.40
2022-08-10T14:13:59.399Z,68.10
2022-08-10T14:18:22.432Z,65.60
2022-08-10T14:22:43.677Z,69.30
2022-08-10T14:24:48.384Z,68.00
2022-08-10T14:26:58.519Z,69.00
2022-08-10T14:29:06.424Z,67.80
2022-08-10T14:33:24.861Z,71.30
2022-08-10T14:37:48.655Z,69.60
2022-08-10T14:42:25.209Z,66.20
2022-08-10T14:46:39.565Z,68.60
2022-08-10T14:48:47.033Z,68.10
2022-08-10T14:50:55.711Z,65.70
2022-08-10T14:53:02.473Z,65.30
2022-08-10T14:55:19.667Z,65.70
2022-08-10T15:00:24.627Z,64.10
2022-08-10T15:02:00.563Z,65.70
2022-08-10T15:04:02.574Z,66.10
2022-08-10T15:05:54.338Z,66.80
2022-08-10T15:07:59.927Z,68.20
2022-08-10T15:10:06.453Z,67.40
2022-08-10T15:12:13.901Z,68.20
2022-08-10T15:16:33.831Z,70.40
2022-08-10T15:20:59.454Z,66.80
2022-08-10T15:23:06.062Z,67.90
2022-08-10T15:25:19.353Z,69.80
2022-08-10T15:29:35.136Z,67.40
2022-08-10T15:34:36.436Z,65.70
2022-08-10T15:41:20.281Z,69.10
2022-08-10T15:45:45.843Z,68.60
2022-08-10T15:47:55.255Z,67.60
2022-08-10T15:52:39.899Z,70.20
2022-08-10T15:56:44.313Z,70.10
2022-08-10T15:58:52.747Z,67.50
2022-08-10T16:03:19.164Z,67.40
2022-08-10T16:06:00.642Z,69.60
2022-08-10T16:07:46.028Z,67.50
2022-08-10T16:12:03.390Z,67.10
2022-08-10T16:14:10.697Z,69.80
2022-08-10T16:18:34.398Z,68.90
2022-08-10T16:20:53.046Z,69.40
2022-08-10T16:22:48.272Z,70.40
2022-08-10T16:24:54.167Z,68.80
2022-08-10T16:27:01.757Z,67.10
2022-08-10T16:29:08.832Z,68.60
2022-08-10T16:31:17.296Z,70.60
2022-08-10T16:33:23.744Z,70.70
2022-08-10T16:35:30.044Z,67.20
2022-08-10T16:40:00.358Z,67.30
2022-08-10T16:42:06.018Z,67.00
2022-08-10T16:44:13.264Z,69.60
2022-08-10T16:46:19.293Z,66.90
2022-08-10T16:48:49.823Z,69.80
2022-08-10T16:50:32.175Z,68.70
2022-08-10T16:52:36.659Z,68.60
2022-08-10T16:57:01.947Z,66.40
2022-08-10T16:59:06.493Z,69.70
2022-08-10T17:01:12.740Z,67.30
2022-08-10T17:04:04.579Z,69.70
2022-08-10T17:06:09.770Z,69.10
2022-08-10T17:07:34.186Z,69.00
2022-08-10T17:11:57.707Z,69.30
2022-08-10T17:14:02.790Z,69.30
2022-08-10T17:16:09.615Z,69.50
2022-08-10T17:18:17.932Z,70.90
2022-08-10T17:20:30.577Z,69.10
2022-08-10T17:24:50.770Z,66.70
2022-08-10T17:26:57.741Z,69.90
2022-08-10T17:29:04.403Z,70.40
2022-08-10T17:31:23.926Z,70.50
2022-08-10T17:33:19.369Z,69.10
2022-08-10T17:35:25.476Z,69.90
2022-08-10T17:37:32.796Z,66.70
2022-08-10T17:41:56.359Z,68.30
2022-08-10T17:44:03.443Z,67.90
2022-08-10T17:46:07.787Z,68.90
2022-08-10T17:48:11.888Z,69.80
2022-08-10T17:50:17.571Z,71.00
2022-08-10T17:52:23.646Z,70.90
2022-08-10T17:54:30.067Z,70.50
2022-08-10T17:58:53.157Z,71.20
2022-08-10T18:01:40.586Z,70.50
2022-08-10T18:03:06.347Z,71.00
2022-08-10T18:05:12.481Z,70.70
2022-08-10T18:07:16.942Z,70.90
2022-08-10T18:11:47.523Z,70.90
2022-08-10T18:13:55.671Z,70.30
2022-08-10T18:16:01.238Z,70.20
2022-08-10T18:18:07.089Z,71.30
2022-08-10T18:20:12.630Z,71.30
2022-08-10T18:24:35.447Z,71.70
2022-08-10T18:26:41.066Z,72.30
2022-08-10T18:28:45.917Z,72.00
2022-08-10T18:30:53.673Z,72.30
2022-08-10T18:32:58.919Z,72.80
2022-08-10T18:35:05.784Z,73.50
2022-08-10T18:37:15.801Z,72.90
2022-08-10T18:42:00.424Z,73.80
2022-08-10T18:44:05.976Z,75.30
2022-08-10T18:45:57.130Z,74.80
2022-08-10T18:48:04.192Z,74.50
2022-08-10T18:50:13.351Z,75.00
2022-08-10T18:52:19.317Z,75.50
2022-08-10T18:54:39.309Z,75.50
2022-08-10T18:56:48.258Z,77.00
2022-08-10T18:59:02.885Z,76.60
2022-08-10T19:01:20.542Z,76.80
2022-08-10T19:03:47.359Z,77.90
2022-08-10T19:06:17.969Z,77.60
2022-08-10T19:08:49.206Z,77.70
2022-08-10T19:10:54.825Z,79.10
2022-08-10T19:13:03.101Z,78.10
2022-08-10T19:15:16.349Z,78.40
2022-08-10T19:17:24.661Z,78.30
2022-08-10T19:19:35.068Z,79.10
2022-08-10T19:24:01.562Z,78.70
2022-08-10T19:28:25.468Z,79.80
2022-08-10T19:30:34.137Z,80.50
2022-08-10T19:32:44.137Z,80.60
2022-08-10T19:35:02.510Z,81.00
2022-08-10T19:37:10.836Z,81.90
2022-08-10T19:39:20.193Z,81.20
2022-08-10T19:41:32.145Z,80.50
2022-08-10T19:44:00.047Z,80.60
2022-08-10T19:48:11.752Z,81.10
2022-08-10T19:50:19.004Z,81.20
2022-08-10T19:52:27.282Z,81.80
2022-08-10T19:54:36.172Z,82.00
2022-08-10T19:59:10.347Z,82.70
2022-08-10T20:01:15.607Z,82.20
2022-08-10T20:03:23.276Z,82.30
2022-08-10T20:05:31.885Z,82.40
2022-08-10T20:07:39.424Z,82.20
2022-08-10T20:09:47.143Z,82.10
2022-08-10T20:11:54.595Z,82.40
2022-08-10T20:14:02.927Z,82.70
2022-08-10T20:16:11.693Z,83.20
2022-08-10T20:18:22.088Z,83.00
2022-08-10T20:20:31.821Z,83.00
2022-08-10T20:22:39.633Z,82.80
2022-08-10T20:27:30.959Z,82.90
2022-08-10T20:29:16.246Z,84.10
2022-08-10T20:31:24.110Z,84.10
2022-08-10T20:33:31.748Z,83.60
2022-08-10T20:35:42.192Z,83.80
2022-08-10T20:40:11.052Z,83.80
2022-08-10T20:42:21.300Z,84.50
2022-08-10T20:44:33.639Z,83.40
2022-08-10T20:49:00.823Z,83.90
2022-08-10T20:51:08.083Z,84.20
2022-08-10T20:53:14.799Z,82.60
2022-08-10T20:55:20.733Z,83.50
2022-08-10T20:57:54.445Z,83.80
2022-08-10T21:00:04.900Z,84.20
2022-08-10T21:02:23.235Z,84.10
2022-08-10T21:04:33.667Z,84.30
2022-08-10T21:07:06.194Z,84.30
2022-08-10T21:12:21.326Z,83.70
2022-08-10T21:14:35.044Z,84.90
2022-08-10T21:16:48.265Z,84.50
2022-08-10T21:21:41.828Z,84.90
2022-08-10T21:23:43.400Z,85.20
2022-08-10T21:28:38.264Z,84.60
2022-08-10T21:31:00.894Z,85.40
2022-08-10T21:33:08.527Z,85.80
2022-08-10T21:35:36.481Z,86.00
2022-08-10T21:37:39.639Z,85.80
2022-08-10T21:39:44.000Z,86.40
2022-08-10T21:42:14.944Z,86.60
2022-08-10T21:44:39.469Z,86.50
2022-08-10T21:47:04.836Z,87.20
2022-08-10T21:49:37.076Z,86.40
2022-08-10T21:52:03.792Z,86.20
2022-08-10T21:56:46.528Z,87.10
2022-08-10T22:01:39.018Z,87.70
2022-08-10T22:03:58.101Z,88.70
2022-08-10T22:06:20.963Z,88.50
2022-08-10T22:08:46.537Z,88.20
2022-08-10T22:13:28.639Z,88.10
2022-08-10T22:16:09.964Z,89.60
2022-08-10T22:18:31.345Z,89.30
2022-08-10T22:20:44.772Z,89.80
2022-08-10T22:25:38.360Z,90.00
2022-08-10T22:28:02.085Z,90.20
2022-08-10T22:30:25.379Z,90.20
2022-08-10T22:35:31.635Z,90.50
2022-08-10T22:40:24.539Z,90.80
2022-08-10T22:42:58.443Z,91.40
2022-08-10T22:45:17.266Z,91.40
2022-08-10T22:47:42.747Z,91.20
2022-08-10T22:49:51.495Z,91.50
2022-08-10T22:52:01.677Z,91.80
2022-08-10T22:54:33.707Z,91.90
2022-08-10T22:56:57.421Z,92.10
2022-08-10T22:59:02.670Z,92.50
2022-08-10T23:01:11.161Z,92.70
2022-08-10T23:05:37.243Z,92.90
2022-08-10T23:07:48.359Z,93.30
2022-08-10T23:10:00.489Z,93.40
2022-08-10T23:12:09.381Z,93.40
2022-08-10T23:14:14.933Z,93.80
2022-08-10T23:16:42.274Z,94.00
2022-08-10T23:19:07.832Z,94.40
2022-08-10T23:21:14.389Z,94.70
2022-08-10T23:25:57.504Z,94.90
2022-08-10T23:27:51.562Z,95.10
2022-08-10T23:30:09.708Z,95.30
2022-08-10T23:32:08.588Z,95.70
2022-08-10T23:34:14.003Z,96.10
2022-08-10T23:36:34.750Z,96.30
2022-08-10T23:40:46.571Z,96.60
2022-08-10T23:42:52.485Z,97.00
2022-08-10T23:47:19.926Z,97.40
2022-08-10T23:51:56.497Z,98.10
2022-08-10T23:53:52.441Z,98.60
2022-08-10T23:56:03.388Z,99.10
2022-08-10T23:58:09.837Z,99.30
